This is the latest recevied weather packets stored in our database for station/object OE9XVI-6. If no packets are shown the sender has not sent any weather packets the latest 10 day(s).
| Time | Temp. | Humidity | Pressure | Rain* | Wind** | Luminosity | Snow |
|---|---|---|---|---|---|---|---|
| 1777763821 | 13.33° C | 48% | 1020 hPa | 0 mm | - | - | - |
| 1777763221 | 13.33° C | 49% | 1020 hPa | 0 mm | - | - | - |
| 1777762021 | 13.33° C | 49% | 1020.2 hPa | 0 mm | - | - | - |
| 1777761421 | 13.33° C | 49% | 1020.2 hPa | 0 mm | - | - | - |
| 1777760226 | 13.89° C | 50% | 1020.3 hPa | 0 mm | - | - | - |
| 1777759621 | 13.89° C | 49% | 1020.3 hPa | 0 mm | - | - | - |
| 1777759023 | 14.44° C | 48% | 1020.3 hPa | 0 mm | - | - | - |
| 1777757821 | 15° C | 47% | 1020.4 hPa | 0 mm | - | - | - |
| 1777757221 | 15° C | 47% | 1020.5 hPa | 0 mm | - | - | - |
| 1777756621 | 15° C | 46% | 1020.5 hPa | 0 mm | - | - | - |
| 1777756024 | 15° C | 47% | 1020.6 hPa | 0 mm | - | - | - |
| 1777755421 | 15° C | 46% | 1020.6 hPa | 0 mm | - | - | - |
| 1777754821 | 15.56° C | 45% | 1020.7 hPa | 0 mm | - | - | - |
| 1777754222 | 15.56° C | 44% | 1020.9 hPa | 0 mm | - | - | - |
| 1777753026 | 16.11° C | 44% | 1021 hPa | 0 mm | - | - | - |
| 1777751821 | 16.67° C | 41% | 1021.1 hPa | 0 mm | - | - | - |
| 1777750621 | 17.22° C | 39% | 1021 hPa | 0 mm | - | - | - |
| 1777750023 | 17.22° C | 39% | 1021 hPa | 0 mm | - | - | - |
| 1777749421 | 17.78° C | 38% | 1021 hPa | 0 mm | - | - | - |
| 1777748823 | 17.78° C | 39% | 1021 hPa | 0 mm | - | - | - |
| 1777747621 | 17.78° C | 37% | 1020.9 hPa | 0 mm | - | - | - |
| 1777747021 | 18.33° C | 37% | 1020.7 hPa | 0 mm | - | - | - |
| 1777746424 | 18.89° C | 35% | 1020.7 hPa | 0 mm | - | - | - |
| 1777745821 | 19.44° C | 34% | 1020.7 hPa | 0 mm | - | - | - |
| 1777744624 | 25.56° C | 25% | 1020.7 hPa | 0 mm | - | - | - |
* Rain latest hour (hover to see other rain measurements)
** Current wind speed in m/s (hover to see current wind gust speed)